Rocky Butte, Washington
Current Conditions -  °F | °C
As of 11:53 PM on Thursday 20 Nov 2014 (Local Time) from KOMK Reporting Station
Broken Clouds Broken Clouds  
Wind Chill: 27°   Ceiling: 4100
Heat Index: 32°   Visibility: 8mi
Dew Point: 25°   Wind: 5mph
Humidity: 75%   Direction: 110°ESE
Pressure: 30.01"   Gusts: NA
Location:  48.2133°N, 119.829°W
Report Text: KOMK 210753Z AUTO 11004KT 8SM BKN041 BKN120 00/M04 A3001 RMK AO2 SLP174 T00001039 400611022
Loading
Personal Weather Stations






























Interactive Weather Map New forecast layout! Learn more

10-Day Weather Forecast

Advertisements
Track Severe Weather on mobile